Pagrindinis puslapis
METAR-TAF:

METAR-TAF

Oro uostai :

Kešmas, Iranas

platuma: 26-45-18N, ilguma: 055-54-08E, Aukštis: 12 m

Dabartinis oras

Ataskaita buvo paskelbta 46 minutes, ne 04:00 UTC
Ramus vėjas
Temperatūra 20°C
Drėgmė 83%
Slėgis 1014 hPa
Matomumas: 7000 m

METAR: OIKQ 290400Z 00000KT 7000 NSC 20/17 Q1014 NOSIG

Laikas: 08:16 (04:46 UTC)


TAF: trūkstamas

Orai ataskaitas ir orų prognozės (METAR, TAF).

turimą stotys yra geltonos ir raudonos taškus žemėlapyje.

Perkelti pele per norėdami pamatyti stoties vardą.

Tada spustelėkite, norėdami matyti oro stebėjimo ir prognozės.

Norėdami pakeisti žemėlapį: spustelėkite ant žalios mygtukų su juodo kryžiaus žemyn,; žalią mygtuką su brūkšneliu, jei norite nutolinti; arba žalių rodyklių gretimoms žemėlapius.


METAR-TAF: